Pagrindinis puslapis
METAR-TAF:

METAR-TAF

Oro uostai :

Kampina Grandė, Paraiba, Brazilija

platuma: 07-13S, ilguma: 035-53W, Aukštis: 548 m

Dabartinis oras

Ataskaita buvo paskelbta 1 valandą ir 10 minutes, ne 23:00 UTC
Vėjas 14 kt iš Rytų
Temperatūra 24°C
Drėgmė 89%
Slėgis 1016 hPa
Matomumas 10 km arba daugiau
Išsisklaidę debesys ne aukštis 1500 ft

METAR: SBKG 042300Z 10014KT 9999 SCT015 24/22 Q1016

Laikas: 21:10 (00:10 UTC)

Prognozė

Ataskaita buvo paskelbta 9 valandos ir 10 minutes, ne 15:00 UTC
Prognozė galioja nuo 04 metu 18 UTC su 05 metu 06 UTC
Vėjas 15 kt iš Rytų
Matomumas 10 km arba daugiau
Išsisklaidę debesys ne aukštis 2500 ft

TAF: SBKG 041500Z 0418/0506 10015KT 9999 SCT025 TX31/0418Z TN21/0503Z RMK PHD

Orai ataskaitas ir orų prognozės (METAR, TAF).

turimą stotys yra geltonos ir raudonos taškus žemėlapyje.

Perkelti pele per norėdami pamatyti stoties vardą.

Tada spustelėkite, norėdami matyti oro stebėjimo ir prognozės.

Norėdami pakeisti žemėlapį: spustelėkite ant žalios mygtukų su juodo kryžiaus žemyn,; žalią mygtuką su brūkšneliu, jei norite nutolinti; arba žalių rodyklių gretimoms žemėlapius.


METAR-TAF: